createdAt,value
2023-05-10T00:00:18.790Z,12.28
2023-05-10T00:03:22.083Z,12.25
2023-05-10T00:06:25.429Z,12.25
2023-05-10T00:09:28.610Z,12.21
2023-05-10T00:12:31.998Z,12.18
2023-05-10T00:15:36.596Z,12.17
2023-05-10T00:18:39.715Z,12.08
2023-05-10T00:21:42.736Z,12.06
2023-05-10T00:24:45.749Z,12.01
2023-05-10T00:27:48.951Z,11.98
2023-05-10T00:30:53.386Z,11.91
2023-05-10T00:33:57.452Z,11.84
2023-05-10T00:37:00.805Z,11.77
2023-05-10T00:40:03.990Z,11.70
2023-05-10T00:43:07.335Z,11.59
2023-05-10T00:46:11.966Z,11.57
2023-05-10T00:49:15.254Z,11.54
2023-05-10T00:52:18.884Z,11.49
2023-05-10T00:55:22.509Z,11.43
2023-05-10T00:58:29.032Z,11.34
2023-05-10T01:01:33.631Z,11.27
2023-05-10T01:04:38.118Z,11.24
2023-05-10T01:07:42.087Z,11.13
2023-05-10T01:10:46.981Z,11.06
2023-05-10T01:13:57.784Z,11.01
2023-05-10T01:17:03.286Z,10.99
2023-05-10T01:20:09.181Z,10.92
2023-05-10T01:23:37.536Z,10.86
2023-05-10T01:27:19.651Z,10.78
2023-05-10T01:30:52.169Z,10.76
2023-05-10T01:34:04.644Z,10.69
2023-05-10T01:37:13.053Z,10.64
2023-05-10T01:40:25.369Z,10.64
2023-05-10T01:43:35.386Z,10.63
2023-05-10T01:46:40.945Z,10.53
2023-05-10T01:49:50.086Z,10.51
2023-05-10T01:52:57.211Z,10.46
2023-05-10T01:56:02.707Z,10.40
2023-05-10T01:59:11.271Z,10.44
2023-05-10T02:02:16.976Z,10.44
2023-05-10T02:05:24.640Z,10.47
2023-05-10T02:08:29.290Z,10.42
2023-05-10T02:11:34.613Z,10.40
2023-05-10T02:14:39.041Z,10.33
2023-05-10T02:17:44.225Z,10.33
2023-05-10T02:20:49.146Z,10.35
2023-05-10T02:23:53.962Z,10.35
2023-05-10T02:26:58.140Z,10.30
2023-05-10T02:30:01.594Z,10.29
2023-05-10T02:33:06.603Z,10.30
2023-05-10T02:36:12.461Z,10.23
2023-05-10T02:39:16.535Z,10.22
2023-05-10T02:42:22.209Z,10.17
2023-05-10T02:45:30.045Z,10.12
2023-05-10T02:48:33.679Z,10.15
2023-05-10T02:51:44.246Z,10.12
2023-05-10T02:54:52.667Z,10.11
2023-05-10T02:58:01.704Z,10.06
2023-05-10T03:01:05.458Z,10.03
2023-05-10T03:04:08.744Z,10.00
2023-05-10T03:07:13.469Z,9.91
2023-05-10T03:10:17.669Z,9.88
2023-05-10T03:13:36.415Z,9.85
2023-05-10T03:16:48.686Z,9.88
2023-05-10T03:19:59.178Z,9.84
2023-05-10T03:23:10.698Z,9.77
2023-05-10T03:26:22.715Z,9.79
2023-05-10T03:29:28.428Z,9.79
2023-05-10T03:32:32.901Z,9.78
2023-05-10T03:35:36.921Z,9.68
2023-05-10T03:38:41.763Z,9.76
2023-05-10T03:41:44.914Z,9.74
2023-05-10T03:44:50.105Z,9.76
2023-05-10T03:47:53.167Z,9.76
2023-05-10T03:50:56.384Z,9.77
2023-05-10T03:54:00.882Z,9.76
2023-05-10T03:57:05.059Z,9.72
2023-05-10T04:00:12.306Z,9.77
2023-05-10T04:03:18.846Z,9.82
2023-05-10T04:06:22.123Z,9.88
2023-05-10T04:09:26.958Z,9.89
2023-05-10T04:12:29.984Z,9.95
2023-05-10T04:15:33.346Z,10.02
2023-05-10T04:18:36.622Z,10.12
2023-05-10T04:21:39.751Z,10.19
2023-05-10T04:24:44.633Z,10.18
2023-05-10T04:27:47.721Z,10.27
2023-05-10T04:31:06.825Z,10.33
2023-05-10T04:34:11.273Z,10.43
2023-05-10T04:37:14.771Z,10.51
2023-05-10T04:40:19.548Z,10.52
2023-05-10T04:43:22.573Z,10.67
2023-05-10T04:46:25.906Z,10.78
2023-05-10T04:49:29.010Z,10.82
2023-05-10T04:52:32.212Z,10.92
2023-05-10T04:55:37.911Z,10.93
2023-05-10T04:58:40.961Z,11.10
2023-05-10T05:01:44.314Z,11.18
2023-05-10T05:04:47.585Z,11.28
2023-05-10T05:07:50.580Z,11.37
2023-05-10T05:10:55.428Z,11.52
2023-05-10T05:14:00.382Z,11.57
2023-05-10T05:17:03.499Z,11.77
2023-05-10T05:20:08.313Z,11.90
2023-05-10T05:23:11.413Z,12.00
2023-05-10T05:26:18.969Z,12.15
2023-05-10T05:29:22.152Z,12.29
2023-05-10T05:32:25.684Z,12.37
2023-05-10T05:35:28.842Z,12.49
2023-05-10T05:38:31.983Z,12.63
2023-05-10T05:41:36.706Z,12.74
2023-05-10T05:44:40.154Z,12.91
2023-05-10T05:47:43.345Z,13.01
2023-05-10T05:50:46.567Z,13.25
2023-05-10T05:53:49.702Z,13.28
2023-05-10T05:56:56.300Z,13.36
2023-05-10T06:00:00.270Z,13.53
2023-05-10T06:03:03.386Z,13.63
2023-05-10T06:06:07.638Z,13.90
2023-05-10T06:09:10.824Z,13.96
2023-05-10T06:12:15.174Z,14.11
2023-05-10T06:15:18.913Z,14.18
2023-05-10T06:18:22.992Z,14.26
2023-05-10T06:21:26.520Z,14.44
2023-05-10T06:24:29.677Z,14.59
2023-05-10T06:27:34.379Z,14.81
2023-05-10T06:30:39.041Z,14.96
2023-05-10T06:33:44.937Z,15.05
2023-05-10T06:36:48.201Z,15.17
2023-05-10T06:39:51.928Z,15.06
2023-05-10T06:42:56.627Z,15.21
2023-05-10T06:45:59.730Z,15.27
2023-05-10T06:49:05.681Z,15.23
2023-05-10T06:52:08.719Z,15.38
2023-05-10T06:55:12.842Z,15.47
2023-05-10T06:58:17.406Z,15.80
2023-05-10T07:01:21.224Z,15.84
2023-05-10T07:04:24.491Z,15.83
2023-05-10T07:07:27.712Z,15.99
2023-05-10T07:10:30.852Z,16.02
2023-05-10T07:13:37.231Z,16.13
2023-05-10T07:16:40.787Z,16.24
2023-05-10T07:19:44.298Z,16.23
2023-05-10T07:22:47.352Z,16.54
2023-05-10T07:25:52.463Z,16.86
2023-05-10T07:28:56.888Z,17.06
2023-05-10T07:32:00.209Z,17.11
2023-05-10T07:35:03.394Z,17.19
2023-05-10T07:38:06.781Z,17.12
2023-05-10T07:41:09.945Z,17.42
2023-05-10T07:44:14.295Z,17.10
2023-05-10T07:47:17.287Z,17.23
2023-05-10T07:50:20.352Z,17.38
2023-05-10T07:53:23.481Z,17.52
2023-05-10T07:56:30.520Z,17.72
2023-05-10T07:59:34.983Z,17.69
2023-05-10T08:02:38.589Z,17.65
2023-05-10T08:05:41.764Z,17.62
2023-05-10T08:08:46.532Z,17.82
2023-05-10T09:17:31.538Z,20.06
2023-05-10T09:21:01.552Z,19.86
2023-05-10T09:24:06.253Z,19.79
2023-05-10T09:27:10.703Z,19.85
2023-05-10T09:30:19.105Z,20.37
2023-05-10T09:33:25.087Z,20.03
2023-05-10T09:36:28.792Z,19.91
2023-05-10T09:39:36.873Z,20.32
2023-05-10T10:18:37.335Z,21.57
2023-05-10T10:49:52.546Z,23.04
2023-05-10T10:52:55.902Z,22.59
2023-05-10T10:56:16.009Z,22.44
2023-05-10T10:59:29.754Z,22.80
2023-05-10T11:02:46.940Z,22.90
2023-05-10T11:05:54.031Z,22.97
2023-05-10T11:08:57.232Z,23.34
2023-05-10T11:12:01.351Z,23.52
2023-05-10T11:15:05.387Z,23.31
2023-05-10T11:18:25.888Z,23.08
2023-05-10T11:21:31.116Z,23.60
2023-05-10T11:24:36.735Z,23.58
2023-05-10T11:27:40.235Z,23.83
2023-05-10T11:30:45.848Z,23.75
2023-05-10T11:33:51.250Z,24.16
2023-05-10T11:36:57.131Z,24.15
2023-05-10T11:40:00.190Z,24.81
2023-05-10T11:43:04.292Z,24.39
2023-05-10T11:46:08.155Z,24.61
2023-05-10T11:49:11.434Z,24.40
2023-05-10T11:52:16.299Z,24.59
2023-05-10T11:55:20.654Z,24.39
2023-05-10T11:58:27.115Z,24.27
2023-05-10T12:01:31.534Z,24.13
2023-05-10T12:04:34.896Z,24.63
2023-05-10T12:07:42.126Z,24.80
2023-05-10T12:10:45.924Z,24.32
2023-05-10T12:14:04.430Z,24.53
2023-05-10T12:17:07.729Z,24.75
2023-05-10T12:20:19.635Z,24.77
2023-05-10T12:23:28.292Z,24.73
2023-05-10T12:26:32.083Z,24.57
2023-05-10T12:29:35.365Z,24.63
2023-05-10T12:32:42.640Z,25.06
2023-05-10T12:35:47.985Z,24.57
2023-05-10T12:38:53.726Z,25.05
2023-05-10T12:41:56.827Z,24.66
2023-05-10T12:45:00.159Z,24.74
2023-05-10T12:48:03.249Z,25.39
2023-05-10T12:51:10.325Z,25.21
2023-05-10T12:54:14.910Z,25.39
2023-05-10T12:57:19.333Z,25.13
2023-05-10T13:00:22.414Z,25.30
2023-05-10T13:03:25.604Z,25.53
2023-05-10T13:06:29.922Z,25.38
2023-05-10T13:09:34.969Z,25.14
2023-05-10T13:12:38.194Z,25.19
2023-05-10T13:15:41.377Z,25.44
2023-05-10T13:18:44.423Z,25.55
2023-05-10T13:21:47.669Z,25.61
2023-05-10T13:24:52.034Z,25.56
2023-05-10T13:27:55.078Z,25.28
2023-05-10T13:30:58.217Z,25.79
2023-05-10T13:34:01.611Z,24.94
2023-05-10T13:37:04.885Z,24.93
2023-05-10T13:40:10.669Z,25.17
2023-05-10T13:43:19.830Z,25.98
2023-05-10T13:46:24.082Z,25.79
2023-05-10T13:49:27.345Z,26.02
2023-05-10T13:52:30.678Z,25.38
2023-05-10T13:55:35.050Z,25.87
2023-05-10T13:58:38.091Z,26.47
2023-05-10T14:01:41.565Z,26.66
2023-05-10T14:04:44.669Z,26.71
2023-05-10T14:07:48.816Z,26.75
2023-05-10T14:10:53.963Z,25.71
2023-05-10T14:13:57.184Z,26.11
2023-05-10T14:17:00.485Z,26.32
2023-05-10T14:20:05.051Z,26.35
2023-05-10T14:23:10.511Z,26.26
2023-05-10T14:31:44.121Z,26.09
2023-05-10T14:34:49.982Z,26.24
2023-05-10T14:37:59.049Z,26.79
2023-05-10T14:46:56.196Z,27.05
2023-05-10T14:49:59.366Z,26.63
2023-05-10T14:53:02.620Z,27.02
2023-05-10T14:56:06.133Z,27.46
2023-05-10T14:59:09.750Z,26.80
2023-05-10T15:02:14.765Z,27.14
2023-05-10T15:05:18.767Z,26.91
2023-05-10T15:08:25.186Z,26.59
2023-05-10T15:11:28.322Z,26.01
2023-05-10T15:14:34.468Z,26.35
2023-05-10T15:17:39.094Z,26.64
2023-05-10T15:20:42.263Z,26.51
2023-05-10T15:23:47.983Z,26.65
2023-05-10T15:26:53.942Z,26.87
2023-05-10T15:29:57.149Z,26.70
2023-05-10T15:33:01.750Z,25.68
2023-05-10T15:36:05.439Z,26.05
2023-05-10T15:39:10.157Z,25.62
2023-05-10T15:42:17.727Z,25.99
2023-05-10T15:45:21.708Z,25.66
2023-05-10T15:48:26.395Z,26.08
2023-05-10T15:51:29.604Z,26.92
2023-05-10T15:54:32.769Z,26.29
2023-05-10T15:57:36.836Z,26.28
2023-05-10T16:00:40.478Z,25.63
2023-05-10T16:03:44.968Z,25.53
2023-05-10T16:06:51.283Z,25.46
2023-05-10T16:09:54.796Z,25.32
2023-05-10T16:13:02.338Z,24.85
2023-05-10T16:16:08.863Z,24.49
2023-05-10T16:19:13.482Z,23.91
2023-05-10T16:22:17.500Z,23.79
2023-05-10T16:25:21.305Z,23.61
2023-05-10T16:28:27.379Z,23.63
2023-05-10T16:31:30.836Z,23.57
2023-05-10T16:34:36.254Z,23.37
2023-05-10T16:37:39.521Z,23.38
2023-05-10T16:40:43.223Z,23.50
2023-05-10T16:43:47.174Z,23.58
2023-05-10T16:46:50.403Z,23.27
2023-05-10T16:49:54.967Z,23.09
2023-05-10T16:52:58.640Z,23.06
2023-05-10T16:56:04.302Z,22.91
2023-05-10T16:59:07.390Z,22.80
2023-05-10T17:02:11.093Z,22.39
2023-05-10T17:05:16.155Z,22.47
2023-05-10T17:08:19.685Z,22.34
2023-05-10T17:11:22.918Z,22.23
2023-05-10T17:17:29.405Z,21.99
2023-05-10T17:20:34.078Z,21.88
2023-05-10T17:23:37.294Z,21.52
2023-05-10T17:56:53.728Z,21.01
2023-05-10T17:59:56.843Z,20.86
2023-05-10T18:03:04.386Z,20.59
2023-05-10T18:18:18.705Z,19.60
2023-05-10T18:21:21.968Z,19.47
2023-05-10T18:24:37.686Z,19.56
2023-05-10T18:27:42.817Z,19.65
2023-05-10T18:30:58.888Z,19.69
2023-05-10T18:35:01.901Z,19.57
2023-05-10T18:38:10.781Z,19.63
2023-05-10T18:41:14.573Z,19.33
2023-05-10T18:44:18.836Z,19.40
2023-05-10T18:47:22.301Z,19.21
2023-05-10T18:50:32.194Z,19.03
2023-05-10T18:53:35.616Z,18.95
2023-05-10T18:56:44.454Z,18.86
2023-05-10T18:59:47.635Z,18.76
2023-05-10T19:02:51.042Z,18.76
2023-05-10T19:06:12.389Z,18.71
2023-05-10T19:09:16.972Z,18.61
2023-05-10T19:12:48.897Z,18.53
2023-05-10T19:16:14.519Z,18.40
2023-05-10T19:19:28.142Z,18.14
2023-05-10T19:22:47.252Z,18.10
2023-05-10T19:25:56.325Z,18.08
2023-05-10T19:28:59.668Z,18.06
2023-05-10T19:32:02.940Z,18.00
2023-05-10T19:35:07.471Z,18.10
2023-05-10T19:38:12.573Z,17.98
2023-05-10T19:41:16.290Z,18.15
2023-05-10T19:44:19.597Z,18.08
2023-05-10T19:47:25.443Z,18.01
2023-05-10T19:50:31.655Z,17.84
2023-05-10T19:53:36.413Z,17.72
2023-05-10T19:56:39.460Z,17.81
2023-05-10T19:59:42.561Z,17.85
2023-05-10T20:02:45.679Z,17.81
2023-05-10T20:05:48.835Z,17.75
2023-05-10T20:08:58.662Z,17.64
2023-05-10T20:12:02.441Z,17.49
2023-05-10T20:15:07.728Z,17.32
2023-05-10T20:18:11.186Z,17.27
2023-05-10T20:21:14.509Z,17.19
2023-05-10T20:24:19.427Z,17.16
2023-05-10T20:27:22.618Z,17.09
2023-05-10T20:30:25.788Z,17.03
2023-05-10T20:33:29.069Z,16.89
2023-05-10T20:36:32.580Z,16.79
2023-05-10T20:39:37.301Z,16.94
2023-05-10T20:42:41.370Z,16.94
2023-05-10T20:45:45.647Z,16.84
2023-05-10T20:48:50.071Z,16.74
2023-05-10T20:51:54.276Z,16.63
2023-05-10T20:54:59.378Z,16.51
2023-05-10T20:58:04.810Z,16.49
2023-05-10T21:01:12.896Z,16.45
2023-05-10T21:04:16.495Z,16.33
2023-05-10T21:07:20.508Z,16.26
2023-05-10T21:10:28.339Z,16.20
2023-05-10T21:13:32.048Z,16.17
2023-05-10T21:16:35.805Z,16.10
2023-05-10T21:19:45.827Z,15.99
2023-05-10T21:22:50.303Z,15.96
2023-05-10T21:25:55.939Z,15.80
2023-05-10T21:28:59.643Z,15.81
2023-05-10T21:32:03.418Z,15.69
2023-05-10T21:35:09.570Z,15.59
2023-05-10T21:38:13.346Z,15.53
2023-05-10T21:41:18.510Z,15.46
2023-05-10T21:44:22.113Z,15.43
2023-05-10T21:47:25.761Z,15.32
2023-05-10T21:50:30.035Z,15.30
2023-05-10T21:53:33.654Z,15.27
2023-05-10T21:56:39.268Z,15.19
2023-05-10T21:59:43.470Z,15.08
2023-05-10T22:02:47.514Z,15.01
2023-05-10T22:05:51.256Z,15.01
2023-05-10T22:08:55.000Z,14.93
2023-05-10T22:11:59.988Z,14.87
2023-05-10T22:18:09.556Z,14.79
2023-05-10T22:21:12.840Z,14.73
2023-05-10T22:24:15.929Z,14.65
2023-05-10T22:27:20.372Z,14.65
2023-05-10T22:30:23.969Z,14.65
2023-05-10T22:33:27.234Z,14.70
2023-05-10T22:36:32.449Z,14.70
2023-05-10T22:39:35.948Z,14.64
2023-05-10T22:42:40.641Z,14.60
2023-05-10T22:45:44.021Z,14.57
2023-05-10T22:48:47.738Z,14.55
2023-05-10T22:51:53.740Z,14.48
2023-05-10T22:54:57.770Z,14.43
2023-05-10T22:58:02.516Z,14.37
2023-05-10T23:01:06.687Z,14.34
2023-05-10T23:04:09.913Z,14.27
2023-05-10T23:07:13.350Z,14.27
2023-05-10T23:10:16.745Z,14.16
2023-05-10T23:13:22.196Z,14.13
2023-05-10T23:16:25.426Z,14.11
2023-05-10T23:19:28.542Z,14.11
2023-05-10T23:22:32.303Z,14.04
2023-05-10T23:25:39.063Z,13.98
2023-05-10T23:28:43.488Z,13.90
2023-05-10T23:31:50.544Z,13.91
2023-05-10T23:34:53.783Z,13.87
2023-05-10T23:37:56.845Z,13.78
2023-05-10T23:40:59.899Z,13.73
2023-05-10T23:44:04.572Z,13.67
2023-05-10T23:47:07.869Z,13.65
2023-05-10T23:50:11.883Z,13.61
2023-05-10T23:53:15.516Z,13.54
2023-05-10T23:56:18.690Z,13.57
2023-05-10T23:59:23.062Z,13.53
